Historyczne dane pomiarowe

Dodano dane terminowe – wersja testowa.

Dane z okresu 1951-2019

Wersja bazy: 1.34 [2019-03-16, lista zmian], aktualizacja planowana na 2019-04-15

Dane meteo z obszaru Polski uzyskane na podstawie danych udostępnionych przez Instytut Meteorologii i Gospodarki Wodnej – Państwowy Instytut Badawczy.

 

Wybierz Datę:    

       

TemperaturaWilgotnośćWiatrCiśnienieOpadyŚniegCzas trwania zjawisk
 Stacja t tx tn tng RH VA  wxwx mslp ppp RRR   cm mm wxwxwxwxwxwxwx
1961-08-14 14.5 19.5 9.6- 78.0- 5.0 2.3---- 0.5------------
1961-08-13 13.6 18.6 11.8- 75.3- 4.7 2.3---- 0.0------------
1961-08-12 16.4 19.5 14.4- 80.5- 7.3 2.3---- 0.0------------
1961-08-11 17.0 20.5 16.3- 97.8- 6.0 1.3---- 9.4------------
1961-08-10 20.3 26.8 18.0- 88.3- 5.3 2.0---- 0.4------------
1961-08-09 20.5 24.2 15.9- 70.3- 6.3 1.7---- 0.0------------
1961-08-08 18.5 22.7 10.5- 77.8- 4.3 3.3---- 0.0------------
1961-08-07 17.9 21.6 16.1- 83.3- 6.0 3.7---- 0.7------------
1961-08-06 22.1 29.9 17.4- 72.5- 3.0 3.3---- 16.7------------
1961-08-05 19.6 24.1 14.5- 77.3- 5.7 3.3---- 0.0------------
1961-08-04 14.8 16.5 8.9- 81.3- 7.3 3.7---- 0.4------------
1961-08-03 13.6 19.1 11.9- 79.8- 4.3 2.3---- 1.3------------
1961-08-02 15.6 18.8 12.9- 86.0- 6.0 1.7---- 1.4------------
1961-08-01 16.6 20.9 11.3- 63.0- 2.3 3.7---- 0.0------------
1961-07-31 13.7 15.7 11.3- 80.0- 7.7 4.3---- 0.0------------
1961-07-30 12.8 17.0 11.0- 91.5- 7.3 3.3---- 10.4------------
1961-07-29 13.5 18.0 9.9- 74.0- 6.7 3.3---- 0.0------------
1961-07-28 14.9 18.6 13.1- 91.5- 7.7 3.0---- 2.6------------
1961-07-27 19.2 24.2 16.8- 69.3- 7.0 4.3---- 1.1------------
1961-07-26 19.3 23.8 13.0- 56.8- 6.0 4.3---- 0.0------------
1961-07-25 14.2 18.0 11.5- 76.0- 6.0 4.3---- 0.0------------
1961-07-24 13.6 15.5 11.2- 75.3- 7.3 3.3---- 0.0------------
1961-07-23 13.8 16.7 12.1- 81.3- 7.3 3.7---- 1.7------------
1961-07-22 13.5 15.9 12.8- 89.3- 8.0 3.3---- 2.4------------
1961-07-21 13.4 15.2 12.6- 95.3- 8.0 4.3---- 3.8------------
1961-07-20 15.2 19.6 11.7- 82.3- 6.7 3.3---- 2.3------------
1961-07-19 14.4 18.5 11.1- 88.3- 5.7 1.7---- 2.0------------
1961-07-18 15.0 19.6 11.4- 79.5- 6.0 3.7---- 0.1------------
1961-07-17 12.6 15.1 10.0- 92.8- 8.0 2.7---- 9.8------------
1961-07-16 15.3 21.6 12.3- 73.8- 4.3 2.3---- 1.9------------
1961-07-15 18.1 23.7 13.0- 68.5- 6.3 2.3---- 0.4------------
1961-07-14 15.7 20.8 12.1- 62.8- 7.7 4.3---- 3.3------------
1961-07-13 17.2 23.2 14.8- 87.3- 5.7 3.7---- 5.4------------
1961-07-12 22.0 27.0 16.0- 64.0- 4.0 2.7---- 0.0------------
1961-07-11 17.3 22.0 9.7- 74.0- 7.7 2.7---- 0.0------------
1961-07-10 13.7 16.9 10.3- 67.3- 6.7 3.0---- 0.0------------
1961-07-09 13.6 17.7 11.2- 87.0- 7.7 3.3---- 3.3------------
1961-07-08 17.2 22.1 9.7- 57.8- 5.3 3.3---- 3.2------------
1961-07-07 12.2 17.0 8.9- 73.8- 6.3 2.3---- 0.0------------
1961-07-06 11.0 16.3 7.8- 87.0- 7.7 5.0---- 9.2------------
1961-07-05 11.7 16.5 9.4- 77.5- 5.7 4.7---- 1.4------------
1961-07-04 15.3 22.3 13.8- 84.8- 6.7 3.7---- 2.8------------
1961-07-03 24.6 33.3 19.6- 59.5- 4.7 3.3---- 0.0------------
1961-07-02 25.5 32.0 19.3- 47.3- 1.0 2.7---- 0.0------------
1961-07-01 24.0 29.2 16.5- 50.8- 0.0 1.7---- 0.0------------
1961-06-30 21.1 27.3 15.0- 55.0- 0.7 1.3---- 0.0------------
1961-06-29 17.3 23.4 11.6- 64.5- 1.7 3.0---- 0.0------------
1961-06-28 15.4 18.9 11.4- 62.5- 5.7 4.0---- 0.0------------
1961-06-27 19.7 27.0 16.8- 83.3- 6.7 3.3---- 2.9------------
1961-06-26 23.5 29.0 17.4- 58.8- 2.3 2.0---- 0.0------------
1961-06-25 23.9 29.7 17.0- 47.5- 1.3 3.0---- 0.0------------
1961-06-24 20.2 25.1 14.9- 59.0- 5.0 4.3---- 0.0------------
1961-06-23 18.5 22.3 15.7- 59.0- 4.7 4.3---- 0.0------------
1961-06-22 18.6 24.5 10.1- 69.0- 5.0 3.0---- 0.4------------
1961-06-21 15.7 22.5 11.5- 65.5- 3.3 2.7---- 0.0------------
1961-06-20 14.4 20.0 9.2- 57.5- 1.3 2.0---- 0.0------------
1961-06-19 16.1 23.5 13.8- 63.8- 4.3 3.0---- 0.0------------
1961-06-18 22.8 27.3 14.0- 52.3- 3.7 4.0---- 1.2------------
1961-06-17 18.1 22.8 12.4- 60.3- 4.3 1.3---- 0.0------------
1961-06-16 14.9 20.2 9.2- 64.3- 1.3 2.7---- 0.0------------
1321.1 ms

 

Źródłem pochodzenia danych jest Instytut Meteorologii i Gospodarki Wodnej – Państwowy Instytut Badawczy. Dane Instytutu Meteorologii i Gospodarki Wodnej – Państwowego Instytutu Badawczego zostały przetworzone.

Dane źródłowe można odnaleźć na stronie https://dane.imgw.pl